sensor_id;sensor_type;location;lat;lon;timestamp;temperature;humidity
21092;DHT22;10704;42.678;23.288;2023-04-01T00:01:41;11.80;99.90
21092;DHT22;10704;42.678;23.288;2023-04-01T00:04:07;11.80;99.90
21092;DHT22;10704;42.678;23.288;2023-04-01T00:06:33;11.90;99.90
21092;DHT22;10704;42.678;23.288;2023-04-01T00:08:59;11.90;99.90
21092;DHT22;10704;42.678;23.288;2023-04-01T00:11:24;11.80;99.90
21092;DHT22;10704;42.678;23.288;2023-04-01T00:13:53;11.80;99.90
21092;DHT22;10704;42.678;23.288;2023-04-01T00:16:19;11.80;99.90
21092;DHT22;10704;42.678;23.288;2023-04-01T00:18:45;11.60;99.90
21092;DHT22;10704;42.678;23.288;2023-04-01T00:21:13;11.50;99.90
21092;DHT22;10704;42.678;23.288;2023-04-01T00:23:39;11.40;99.90
21092;DHT22;10704;42.678;23.288;2023-04-01T00:26:05;11.30;99.90
21092;DHT22;10704;42.678;23.288;2023-04-01T00:28:31;11.30;99.90
21092;DHT22;10704;42.678;23.288;2023-04-01T00:31:04;11.30;99.90
21092;DHT22;10704;42.678;23.288;2023-04-01T00:33:30;11.10;99.90
21092;DHT22;10704;42.678;23.288;2023-04-01T00:35:56;11.20;99.90
21092;DHT22;10704;42.678;23.288;2023-04-01T00:38:30;11.00;99.90
21092;DHT22;10704;42.678;23.288;2023-04-01T00:40:57;10.80;99.90
21092;DHT22;10704;42.678;23.288;2023-04-01T00:43:24;10.80;99.90
21092;DHT22;10704;42.678;23.288;2023-04-01T00:45:50;10.80;99.90
21092;DHT22;10704;42.678;23.288;2023-04-01T00:48:29;10.70;99.90
21092;DHT22;10704;42.678;23.288;2023-04-01T00:51:04;10.70;99.90
21092;DHT22;10704;42.678;23.288;2023-04-01T00:53:32;10.60;99.90
21092;DHT22;10704;42.678;23.288;2023-04-01T00:56:26;10.40;99.90
21092;DHT22;10704;42.678;23.288;2023-04-01T00:59:03;10.30;99.90
21092;DHT22;10704;42.678;23.288;2023-04-01T01:01:30;10.20;99.90
21092;DHT22;10704;42.678;23.288;2023-04-01T01:03:57;10.00;99.90
21092;DHT22;10704;42.678;23.288;2023-04-01T01:11:33;10.10;99.90
21092;DHT22;10704;42.678;23.288;2023-04-01T01:14:38;10.20;99.90
21092;DHT22;10704;42.678;23.288;2023-04-01T01:28:20;10.50;99.90
21092;DHT22;10704;42.678;23.288;2023-04-01T01:36:31;10.40;99.90
21092;DHT22;10704;42.678;23.288;2023-04-01T01:39:03;10.40;99.90
21092;DHT22;10704;42.678;23.288;2023-04-01T01:41:31;10.40;99.90
21092;DHT22;10704;42.678;23.288;2023-04-01T01:43:59;10.40;99.90
21092;DHT22;10704;42.678;23.288;2023-04-01T01:46:29;10.40;99.90
21092;DHT22;10704;42.678;23.288;2023-04-01T01:48:57;10.30;99.90
21092;DHT22;10704;42.678;23.288;2023-04-01T01:51:24;10.40;99.90
21092;DHT22;10704;42.678;23.288;2023-04-01T01:53:52;10.30;99.90
21092;DHT22;10704;42.678;23.288;2023-04-01T01:56:23;10.40;99.90
21092;DHT22;10704;42.678;23.288;2023-04-01T01:59:00;10.50;99.90
21092;DHT22;10704;42.678;23.288;2023-04-01T02:01:31;10.50;99.90
21092;DHT22;10704;42.678;23.288;2023-04-01T02:04:06;10.50;99.90
21092;DHT22;10704;42.678;23.288;2023-04-01T02:06:36;10.60;99.90
21092;DHT22;10704;42.678;23.288;2023-04-01T02:09:06;10.60;99.90
21092;DHT22;10704;42.678;23.288;2023-04-01T02:17:04;11.00;99.90
21092;DHT22;10704;42.678;23.288;2023-04-01T02:20:13;11.20;99.90
21092;DHT22;10704;42.678;23.288;2023-04-01T02:22:47;11.10;99.90
21092;DHT22;10704;42.678;23.288;2023-04-01T02:25:20;11.10;99.90
21092;DHT22;10704;42.678;23.288;2023-04-01T02:27:48;11.20;99.90
21092;DHT22;10704;42.678;23.288;2023-04-01T02:30:15;11.20;99.90
21092;DHT22;10704;42.678;23.288;2023-04-01T02:32:42;11.30;99.90
21092;DHT22;10704;42.678;23.288;2023-04-01T02:35:13;11.20;99.90
21092;DHT22;10704;42.678;23.288;2023-04-01T02:37:42;11.10;99.90
21092;DHT22;10704;42.678;23.288;2023-04-01T02:40:10;11.00;99.90
21092;DHT22;10704;42.678;23.288;2023-04-01T02:42:37;11.00;99.90
21092;DHT22;10704;42.678;23.288;2023-04-01T02:45:04;11.10;99.90
21092;DHT22;10704;42.678;23.288;2023-04-01T02:47:30;11.00;99.90
21092;DHT22;10704;42.678;23.288;2023-04-01T02:49:56;11.00;99.90
21092;DHT22;10704;42.678;23.288;2023-04-01T02:52:28;10.90;99.90
21092;DHT22;10704;42.678;23.288;2023-04-01T02:54:56;10.60;99.90
21092;DHT22;10704;42.678;23.288;2023-04-01T02:57:23;10.60;99.90
21092;DHT22;10704;42.678;23.288;2023-04-01T02:59:49;10.50;99.90
21092;DHT22;10704;42.678;23.288;2023-04-01T03:02:16;10.60;99.90
21092;DHT22;10704;42.678;23.288;2023-04-01T03:04:42;10.50;99.90
21092;DHT22;10704;42.678;23.288;2023-04-01T03:07:08;10.60;99.90
21092;DHT22;10704;42.678;23.288;2023-04-01T03:09:37;10.60;99.90
21092;DHT22;10704;42.678;23.288;2023-04-01T03:12:03;10.50;99.90
21092;DHT22;10704;42.678;23.288;2023-04-01T03:14:30;10.60;99.90
21092;DHT22;10704;42.678;23.288;2023-04-01T03:16:56;10.50;99.90
21092;DHT22;10704;42.678;23.288;2023-04-01T03:19:23;10.60;99.90
21092;DHT22;10704;42.678;23.288;2023-04-01T03:21:49;10.60;99.90
21092;DHT22;10704;42.678;23.288;2023-04-01T03:24:15;10.70;99.90
21092;DHT22;10704;42.678;23.288;2023-04-01T03:26:41;10.70;99.90
21092;DHT22;10704;42.678;23.288;2023-04-01T03:29:07;10.60;99.90
21092;DHT22;10704;42.678;23.288;2023-04-01T03:31:33;10.60;99.90
21092;DHT22;10704;42.678;23.288;2023-04-01T03:33:59;10.40;99.90
21092;DHT22;10704;42.678;23.288;2023-04-01T03:36:26;10.50;99.90
21092;DHT22;10704;42.678;23.288;2023-04-01T03:38:52;10.70;99.90
21092;DHT22;10704;42.678;23.288;2023-04-01T03:41:24;10.80;99.90
21092;DHT22;10704;42.678;23.288;2023-04-01T03:43:53;10.70;99.90
21092;DHT22;10704;42.678;23.288;2023-04-01T03:46:19;10.80;99.90
21092;DHT22;10704;42.678;23.288;2023-04-01T03:48:46;10.60;99.90
21092;DHT22;10704;42.678;23.288;2023-04-01T03:51:12;10.70;99.90
21092;DHT22;10704;42.678;23.288;2023-04-01T03:53:38;10.50;99.90
21092;DHT22;10704;42.678;23.288;2023-04-01T03:56:06;10.30;99.90
21092;DHT22;10704;42.678;23.288;2023-04-01T03:58:35;10.20;99.90
21092;DHT22;10704;42.678;23.288;2023-04-01T04:01:02;10.20;99.90
21092;DHT22;10704;42.678;23.288;2023-04-01T04:03:29;10.10;99.90
21092;DHT22;10704;42.678;23.288;2023-04-01T04:05:55;10.10;99.90
21092;DHT22;10704;42.678;23.288;2023-04-01T04:08:22;10.20;99.90
21092;DHT22;10704;42.678;23.288;2023-04-01T04:10:55;10.20;99.90
21092;DHT22;10704;42.678;23.288;2023-04-01T04:13:21;10.20;99.90
21092;DHT22;10704;42.678;23.288;2023-04-01T04:15:54;10.20;99.90
21092;DHT22;10704;42.678;23.288;2023-04-01T04:18:20;10.20;99.90
21092;DHT22;10704;42.678;23.288;2023-04-01T04:20:46;10.30;99.90
21092;DHT22;10704;42.678;23.288;2023-04-01T04:23:15;10.50;99.90
21092;DHT22;10704;42.678;23.288;2023-04-01T04:25:41;10.50;99.90
21092;DHT22;10704;42.678;23.288;2023-04-01T04:28:07;10.30;99.90
21092;DHT22;10704;42.678;23.288;2023-04-01T04:30:34;10.20;99.90
21092;DHT22;10704;42.678;23.288;2023-04-01T04:33:00;10.20;99.90
21092;DHT22;10704;42.678;23.288;2023-04-01T04:35:26;10.30;99.90
21092;DHT22;10704;42.678;23.288;2023-04-01T04:37:52;10.40;99.90
21092;DHT22;10704;42.678;23.288;2023-04-01T04:40:18;10.50;99.90
21092;DHT22;10704;42.678;23.288;2023-04-01T04:42:44;10.60;99.90
21092;DHT22;10704;42.678;23.288;2023-04-01T04:45:14;10.70;99.90
21092;DHT22;10704;42.678;23.288;2023-04-01T04:47:47;10.70;99.90
21092;DHT22;10704;42.678;23.288;2023-04-01T04:50:13;10.70;99.90
21092;DHT22;10704;42.678;23.288;2023-04-01T04:52:40;10.70;99.90
21092;DHT22;10704;42.678;23.288;2023-04-01T04:55:06;10.70;99.90
21092;DHT22;10704;42.678;23.288;2023-04-01T04:57:32;10.70;99.90
21092;DHT22;10704;42.678;23.288;2023-04-01T04:59:58;10.60;99.90
21092;DHT22;10704;42.678;23.288;2023-04-01T05:02:47;10.70;99.90
21092;DHT22;10704;42.678;23.288;2023-04-01T05:05:13;10.80;99.90
21092;DHT22;10704;42.678;23.288;2023-04-01T05:07:39;10.80;99.90
21092;DHT22;10704;42.678;23.288;2023-04-01T05:10:05;10.50;99.90
21092;DHT22;10704;42.678;23.288;2023-04-01T05:12:31;10.40;99.90
21092;DHT22;10704;42.678;23.288;2023-04-01T05:15:04;10.30;99.90
21092;DHT22;10704;42.678;23.288;2023-04-01T05:17:30;10.10;99.90
21092;DHT22;10704;42.678;23.288;2023-04-01T05:19:56;10.00;99.90
21092;DHT22;10704;42.678;23.288;2023-04-01T05:22:22;10.10;99.90
21092;DHT22;10704;42.678;23.288;2023-04-01T05:24:49;10.10;99.90
21092;DHT22;10704;42.678;23.288;2023-04-01T05:27:15;10.30;99.90
21092;DHT22;10704;42.678;23.288;2023-04-01T05:29:42;10.20;99.90
21092;DHT22;10704;42.678;23.288;2023-04-01T05:32:22;10.20;99.90
21092;DHT22;10704;42.678;23.288;2023-04-01T05:34:52;10.40;99.90
21092;DHT22;10704;42.678;23.288;2023-04-01T05:37:19;10.60;99.90
21092;DHT22;10704;42.678;23.288;2023-04-01T05:39:46;10.70;99.90
21092;DHT22;10704;42.678;23.288;2023-04-01T05:42:12;10.80;99.90
21092;DHT22;10704;42.678;23.288;2023-04-01T05:44:39;11.00;99.90
21092;DHT22;10704;42.678;23.288;2023-04-01T05:47:05;11.20;99.90
21092;DHT22;10704;42.678;23.288;2023-04-01T05:49:33;11.30;99.90
21092;DHT22;10704;42.678;23.288;2023-04-01T05:52:00;11.50;99.90
21092;DHT22;10704;42.678;23.288;2023-04-01T05:54:26;11.70;99.90
21092;DHT22;10704;42.678;23.288;2023-04-01T05:56:52;11.90;99.90
21092;DHT22;10704;42.678;23.288;2023-04-01T05:59:19;12.00;99.90
21092;DHT22;10704;42.678;23.288;2023-04-01T06:01:45;12.20;99.90
21092;DHT22;10704;42.678;23.288;2023-04-01T06:04:16;12.40;99.90
21092;DHT22;10704;42.678;23.288;2023-04-01T06:06:43;12.70;99.90
21092;DHT22;10704;42.678;23.288;2023-04-01T06:09:18;13.10;99.90
21092;DHT22;10704;42.678;23.288;2023-04-01T06:12:14;13.40;99.90
21092;DHT22;10704;42.678;23.288;2023-04-01T06:26:23;14.00;99.90
21092;DHT22;10704;42.678;23.288;2023-04-01T06:40:02;14.10;97.90
21092;DHT22;10704;42.678;23.288;2023-04-01T06:46:31;14.30;97.10
21092;DHT22;10704;42.678;23.288;2023-04-01T06:52:26;14.20;96.80
21092;DHT22;10704;42.678;23.288;2023-04-01T06:55:38;13.90;97.10
21092;DHT22;10704;42.678;23.288;2023-04-01T06:58:29;13.80;98.30
21092;DHT22;10704;42.678;23.288;2023-04-01T07:00:59;13.70;99.20
21092;DHT22;10704;42.678;23.288;2023-04-01T07:03:33;13.70;99.90
21092;DHT22;10704;42.678;23.288;2023-04-01T07:06:10;13.70;99.90
21092;DHT22;10704;42.678;23.288;2023-04-01T07:08:46;13.60;99.90
21092;DHT22;10704;42.678;23.288;2023-04-01T07:11:25;13.70;99.90
21092;DHT22;10704;42.678;23.288;2023-04-01T07:14:25;13.60;99.90
21092;DHT22;10704;42.678;23.288;2023-04-01T07:17:16;13.60;99.90
21092;DHT22;10704;42.678;23.288;2023-04-01T07:19:53;13.90;99.90
21092;DHT22;10704;42.678;23.288;2023-04-01T07:22:38;14.10;99.90
21092;DHT22;10704;42.678;23.288;2023-04-01T07:25:21;14.40;99.90
21092;DHT22;10704;42.678;23.288;2023-04-01T07:28:06;14.50;99.90
21092;DHT22;10704;42.678;23.288;2023-04-01T07:33:39;14.10;99.90
21092;DHT22;10704;42.678;23.288;2023-04-01T07:36:10;14.20;99.90
21092;DHT22;10704;42.678;23.288;2023-04-01T07:50:13;14.50;99.90
21092;DHT22;10704;42.678;23.288;2023-04-01T07:52:53;14.30;99.90
21092;DHT22;10704;42.678;23.288;2023-04-01T07:55:30;14.50;99.90
21092;DHT22;10704;42.678;23.288;2023-04-01T08:01:13;14.40;99.90
21092;DHT22;10704;42.678;23.288;2023-04-01T08:03:55;14.30;99.90
21092;DHT22;10704;42.678;23.288;2023-04-01T08:06:26;14.40;99.90
21092;DHT22;10704;42.678;23.288;2023-04-01T08:09:11;14.30;99.90
21092;DHT22;10704;42.678;23.288;2023-04-01T08:15:11;14.90;99.90
21092;DHT22;10704;42.678;23.288;2023-04-01T08:18:17;15.20;99.90
21092;DHT22;10704;42.678;23.288;2023-04-01T08:21:03;15.40;99.40
21092;DHT22;10704;42.678;23.288;2023-04-01T08:23:36;15.60;98.40
21092;DHT22;10704;42.678;23.288;2023-04-01T08:26:12;15.70;97.70
21092;DHT22;10704;42.678;23.288;2023-04-01T08:31:35;15.60;97.30
21092;DHT22;10704;42.678;23.288;2023-04-01T08:34:08;16.00;97.20
21092;DHT22;10704;42.678;23.288;2023-04-01T08:36:43;16.80;96.30
21092;DHT22;10704;42.678;23.288;2023-04-01T09:11:06;20.00;66.30
21092;DHT22;10704;42.678;23.288;2023-04-01T09:33:38;19.30;66.80
21092;DHT22;10704;42.678;23.288;2023-04-01T09:38:57;19.80;64.30
21092;DHT22;10704;42.678;23.288;2023-04-01T09:41:36;19.80;64.20
21092;DHT22;10704;42.678;23.288;2023-04-01T09:47:38;20.00;59.20
21092;DHT22;10704;42.678;23.288;2023-04-01T09:50:35;20.40;57.90
21092;DHT22;10704;42.678;23.288;2023-04-01T10:30:17;23.10;54.20
21092;DHT22;10704;42.678;23.288;2023-04-01T10:36:04;23.30;52.00
21092;DHT22;10704;42.678;23.288;2023-04-01T10:41:57;22.60;54.30
21092;DHT22;10704;42.678;23.288;2023-04-01T10:49:14;21.90;56.00
21092;DHT22;10704;42.678;23.288;2023-04-01T10:54:04;20.70;56.70
21092;DHT22;10704;42.678;23.288;2023-04-01T11:33:37;17.50;64.30
21092;DHT22;10704;42.678;23.288;2023-04-01T11:39:17;16.40;76.90
21092;DHT22;10704;42.678;23.288;2023-04-01T11:54:03;12.40;99.90
21092;DHT22;10704;42.678;23.288;2023-04-01T11:56:55;11.80;99.90
21092;DHT22;10704;42.678;23.288;2023-04-01T12:05:18;11.30;99.90
21092;DHT22;10704;42.678;23.288;2023-04-01T12:13:35;11.00;99.90
21092;DHT22;10704;42.678;23.288;2023-04-01T12:16:33;11.00;99.90
21092;DHT22;10704;42.678;23.288;2023-04-01T12:19:24;11.30;99.90
21092;DHT22;10704;42.678;23.288;2023-04-01T12:22:02;11.90;99.90
21092;DHT22;10704;42.678;23.288;2023-04-01T12:25:07;12.10;99.90
21092;DHT22;10704;42.678;23.288;2023-04-01T12:27:52;12.80;99.90
21092;DHT22;10704;42.678;23.288;2023-04-01T12:43:05;12.80;99.90
21092;DHT22;10704;42.678;23.288;2023-04-01T12:48:05;12.30;99.90
21092;DHT22;10704;42.678;23.288;2023-04-01T12:56:19;12.60;99.90
21092;DHT22;10704;42.678;23.288;2023-04-01T13:01:23;12.20;99.90
21092;DHT22;10704;42.678;23.288;2023-04-01T13:12:45;12.20;99.90
21092;DHT22;10704;42.678;23.288;2023-04-01T13:20:53;12.40;99.90
21092;DHT22;10704;42.678;23.288;2023-04-01T13:29:12;14.40;99.90
21092;DHT22;10704;42.678;23.288;2023-04-01T13:45:55;16.10;99.90
21092;DHT22;10704;42.678;23.288;2023-04-01T13:54:13;16.20;99.90
21092;DHT22;10704;42.678;23.288;2023-04-01T13:56:42;17.00;99.90
21092;DHT22;10704;42.678;23.288;2023-04-01T14:08:29;16.70;99.90
21092;DHT22;10704;42.678;23.288;2023-04-01T14:14:21;17.50;94.30
21092;DHT22;10704;42.678;23.288;2023-04-01T14:16:59;17.50;90.80
21092;DHT22;10704;42.678;23.288;2023-04-01T14:25:32;16.70;92.40
21092;DHT22;10704;42.678;23.288;2023-04-01T14:34:00;16.40;92.40
21092;DHT22;10704;42.678;23.288;2023-04-01T14:39:33;17.50;91.40
21092;DHT22;10704;42.678;23.288;2023-04-01T14:42:13;17.40;87.20
21092;DHT22;10704;42.678;23.288;2023-04-01T14:49:53;18.10;81.40
21092;DHT22;10704;42.678;23.288;2023-04-01T14:52:30;18.10;78.00
21092;DHT22;10704;42.678;23.288;2023-04-01T14:54:58;18.20;76.10
21092;DHT22;10704;42.678;23.288;2023-04-01T14:57:29;18.20;75.80
21092;DHT22;10704;42.678;23.288;2023-04-01T15:00:41;18.00;76.20
21092;DHT22;10704;42.678;23.288;2023-04-01T15:32:54;16.30;93.30
21092;DHT22;10704;42.678;23.288;2023-04-01T15:40:54;15.60;92.10
21092;DHT22;10704;42.678;23.288;2023-04-01T15:43:40;15.40;93.40
21092;DHT22;10704;42.678;23.288;2023-04-01T15:51:54;14.00;99.90
21092;DHT22;10704;42.678;23.288;2023-04-01T16:03:09;9.90;99.90
21092;DHT22;10704;42.678;23.288;2023-04-01T16:08:49;9.00;99.90
21092;DHT22;10704;42.678;23.288;2023-04-01T16:14:39;8.70;99.90
21092;DHT22;10704;42.678;23.288;2023-04-01T16:25:25;8.20;99.90
21092;DHT22;10704;42.678;23.288;2023-04-01T16:30:37;8.20;99.90
21092;DHT22;10704;42.678;23.288;2023-04-01T16:35:57;8.20;99.90
21092;DHT22;10704;42.678;23.288;2023-04-01T16:38:33;8.30;99.90
21092;DHT22;10704;42.678;23.288;2023-04-01T16:41:17;8.30;99.90
21092;DHT22;10704;42.678;23.288;2023-04-01T16:43:48;8.20;99.90
21092;DHT22;10704;42.678;23.288;2023-04-01T16:59:55;8.20;99.90
21092;DHT22;10704;42.678;23.288;2023-04-01T17:02:31;8.20;99.90
21092;DHT22;10704;42.678;23.288;2023-04-01T17:05:09;8.30;99.90
21092;DHT22;10704;42.678;23.288;2023-04-01T17:08:19;8.40;99.90
21092;DHT22;10704;42.678;23.288;2023-04-01T17:11:04;8.40;99.90
21092;DHT22;10704;42.678;23.288;2023-04-01T17:13:46;8.40;99.90
21092;DHT22;10704;42.678;23.288;2023-04-01T17:16:35;8.30;99.90
21092;DHT22;10704;42.678;23.288;2023-04-01T17:30:13;8.00;99.90
21092;DHT22;10704;42.678;23.288;2023-04-01T17:38:39;7.90;99.90
21092;DHT22;10704;42.678;23.288;2023-04-01T17:55:15;7.70;99.90
21092;DHT22;10704;42.678;23.288;2023-04-01T17:58:18;7.70;99.90
21092;DHT22;10704;42.678;23.288;2023-04-01T18:01:10;7.70;99.90
21092;DHT22;10704;42.678;23.288;2023-04-01T18:25:37;7.80;99.90
21092;DHT22;10704;42.678;23.288;2023-04-01T18:28:32;7.90;99.90
21092;DHT22;10704;42.678;23.288;2023-04-01T18:39:11;7.80;99.90
21092;DHT22;10704;42.678;23.288;2023-04-01T18:44:19;7.80;99.90
21092;DHT22;10704;42.678;23.288;2023-04-01T18:47:19;7.80;99.90
21092;DHT22;10704;42.678;23.288;2023-04-01T18:50:11;7.90;99.90
21092;DHT22;10704;42.678;23.288;2023-04-01T18:52:42;8.00;99.90
21092;DHT22;10704;42.678;23.288;2023-04-01T18:55:32;8.00;99.90
21092;DHT22;10704;42.678;23.288;2023-04-01T18:58:22;8.00;99.90
21092;DHT22;10704;42.678;23.288;2023-04-01T19:01:18;8.00;99.90
21092;DHT22;10704;42.678;23.288;2023-04-01T19:06:51;8.00;99.90
21092;DHT22;10704;42.678;23.288;2023-04-01T19:09:32;8.00;99.90
21092;DHT22;10704;42.678;23.288;2023-04-01T19:12:34;8.00;99.90
21092;DHT22;10704;42.678;23.288;2023-04-01T19:15:25;8.00;99.90
21092;DHT22;10704;42.678;23.288;2023-04-01T19:18:36;8.10;99.90
21092;DHT22;10704;42.678;23.288;2023-04-01T19:21:18;8.10;99.90
21092;DHT22;10704;42.678;23.288;2023-04-01T19:38:11;8.10;99.90
21092;DHT22;10704;42.678;23.288;2023-04-01T19:40:48;8.10;99.90
21092;DHT22;10704;42.678;23.288;2023-04-01T19:45:51;8.10;99.90
21092;DHT22;10704;42.678;23.288;2023-04-01T19:51:05;8.00;99.90
21092;DHT22;10704;42.678;23.288;2023-04-01T19:56:22;8.00;99.90
21092;DHT22;10704;42.678;23.288;2023-04-01T19:59:21;8.00;99.90
21092;DHT22;10704;42.678;23.288;2023-04-01T20:05:03;8.10;99.90
21092;DHT22;10704;42.678;23.288;2023-04-01T20:07:37;8.10;99.90
21092;DHT22;10704;42.678;23.288;2023-04-01T20:10:14;8.10;99.90
21092;DHT22;10704;42.678;23.288;2023-04-01T20:12:47;8.10;99.90
21092;DHT22;10704;42.678;23.288;2023-04-01T20:15:30;8.00;99.90
21092;DHT22;10704;42.678;23.288;2023-04-01T20:18:00;8.00;99.90
21092;DHT22;10704;42.678;23.288;2023-04-01T20:20:29;8.00;99.90
21092;DHT22;10704;42.678;23.288;2023-04-01T20:23:16;8.10;99.90
21092;DHT22;10704;42.678;23.288;2023-04-01T20:26:12;8.10;99.90
21092;DHT22;10704;42.678;23.288;2023-04-01T20:28:46;8.10;99.90
21092;DHT22;10704;42.678;23.288;2023-04-01T20:34:42;8.10;99.90
21092;DHT22;10704;42.678;23.288;2023-04-01T20:45:34;8.00;99.90
21092;DHT22;10704;42.678;23.288;2023-04-01T20:53:42;8.00;99.90
21092;DHT22;10704;42.678;23.288;2023-04-01T20:57:06;8.00;99.90
21092;DHT22;10704;42.678;23.288;2023-04-01T21:08:15;8.10;99.90
21092;DHT22;10704;42.678;23.288;2023-04-01T21:11:01;8.10;99.90
21092;DHT22;10704;42.678;23.288;2023-04-01T21:19:24;8.30;99.90
21092;DHT22;10704;42.678;23.288;2023-04-01T22:00:24;8.30;99.90
21092;DHT22;10704;42.678;23.288;2023-04-01T22:03:12;8.30;99.90
21092;DHT22;10704;42.678;23.288;2023-04-01T22:06:08;8.20;99.90
21092;DHT22;10704;42.678;23.288;2023-04-01T22:14:38;8.20;99.90
21092;DHT22;10704;42.678;23.288;2023-04-01T22:17:28;8.30;99.90
21092;DHT22;10704;42.678;23.288;2023-04-01T22:22:34;8.40;99.90
21092;DHT22;10704;42.678;23.288;2023-04-01T22:25:24;8.40;99.90
21092;DHT22;10704;42.678;23.288;2023-04-01T22:28:00;8.40;99.90
21092;DHT22;10704;42.678;23.288;2023-04-01T22:30:41;8.40;99.90
21092;DHT22;10704;42.678;23.288;2023-04-01T22:36:36;8.30;99.90
21092;DHT22;10704;42.678;23.288;2023-04-01T22:44:55;8.30;99.90
21092;DHT22;10704;42.678;23.288;2023-04-01T22:55:46;8.30;99.90
21092;DHT22;10704;42.678;23.288;2023-04-01T22:58:21;8.20;99.90
21092;DHT22;10704;42.678;23.288;2023-04-01T23:00:59;8.20;99.90
21092;DHT22;10704;42.678;23.288;2023-04-01T23:03:35;8.20;99.90
21092;DHT22;10704;42.678;23.288;2023-04-01T23:06:05;8.20;99.90
21092;DHT22;10704;42.678;23.288;2023-04-01T23:11:40;8.30;99.90
21092;DHT22;10704;42.678;23.288;2023-04-01T23:16:53;8.40;99.90
21092;DHT22;10704;42.678;23.288;2023-04-01T23:19:29;8.50;99.90
21092;DHT22;10704;42.678;23.288;2023-04-01T23:35:49;8.30;99.90
21092;DHT22;10704;42.678;23.288;2023-04-01T23:38:17;8.30;99.90
21092;DHT22;10704;42.678;23.288;2023-04-01T23:40:44;8.30;99.90
21092;DHT22;10704;42.678;23.288;2023-04-01T23:43:23;8.30;99.90
21092;DHT22;10704;42.678;23.288;2023-04-01T23:45:52;8.30;99.90
21092;DHT22;10704;42.678;23.288;2023-04-01T23:48:19;8.30;99.90
21092;DHT22;10704;42.678;23.288;2023-04-01T23:50:47;8.30;99.90
21092;DHT22;10704;42.678;23.288;2023-04-01T23:55:42;8.40;99.90
